sensor_id;sensor_type;location;lat;lon;timestamp;temperature;humidity
15231;DHT22;32569;51.762;8.564;2022-11-20T00:01:26;-4.40;99.90
15231;DHT22;32569;51.762;8.564;2022-11-20T00:03:54;-4.40;99.90
15231;DHT22;32569;51.762;8.564;2022-11-20T00:06:22;-4.30;99.90
15231;DHT22;32569;51.762;8.564;2022-11-20T00:08:50;-4.40;99.90
15231;DHT22;32569;51.762;8.564;2022-11-20T00:11:20;-4.50;99.90
15231;DHT22;32569;51.762;8.564;2022-11-20T00:13:49;-4.50;99.90
15231;DHT22;32569;51.762;8.564;2022-11-20T00:16:20;-4.50;99.90
15231;DHT22;32569;51.762;8.564;2022-11-20T00:18:47;-4.50;99.90
15231;DHT22;32569;51.762;8.564;2022-11-20T00:21:16;-4.50;99.90
15231;DHT22;32569;51.762;8.564;2022-11-20T00:23:43;-4.50;99.90
15231;DHT22;32569;51.762;8.564;2022-11-20T00:26:12;-4.50;99.90
15231;DHT22;32569;51.762;8.564;2022-11-20T00:28:39;-4.60;99.90
15231;DHT22;32569;51.762;8.564;2022-11-20T00:31:07;-4.60;99.90
15231;DHT22;32569;51.762;8.564;2022-11-20T00:33:36;-4.70;99.90
15231;DHT22;32569;51.762;8.564;2022-11-20T00:36:06;-4.60;99.90
15231;DHT22;32569;51.762;8.564;2022-11-20T00:38:34;-4.60;99.90
15231;DHT22;32569;51.762;8.564;2022-11-20T00:41:03;-4.70;99.90
15231;DHT22;32569;51.762;8.564;2022-11-20T00:43:30;-4.60;99.90
15231;DHT22;32569;51.762;8.564;2022-11-20T00:45:57;-4.50;99.90
15231;DHT22;32569;51.762;8.564;2022-11-20T00:48:25;-4.40;99.90
15231;DHT22;32569;51.762;8.564;2022-11-20T00:50:54;-4.20;99.90
15231;DHT22;32569;51.762;8.564;2022-11-20T00:53:20;-4.20;99.90
15231;DHT22;32569;51.762;8.564;2022-11-20T00:55:55;-4.20;99.90
15231;DHT22;32569;51.762;8.564;2022-11-20T00:58:24;-4.20;99.90
15231;DHT22;32569;51.762;8.564;2022-11-20T01:00:51;-4.30;99.90
15231;DHT22;32569;51.762;8.564;2022-11-20T01:03:18;-4.30;99.90
15231;DHT22;32569;51.762;8.564;2022-11-20T01:05:45;-4.30;99.90
15231;DHT22;32569;51.762;8.564;2022-11-20T01:08:13;-4.40;99.90
15231;DHT22;32569;51.762;8.564;2022-11-20T01:10:40;-4.40;99.90
15231;DHT22;32569;51.762;8.564;2022-11-20T01:13:07;-4.30;99.90
15231;DHT22;32569;51.762;8.564;2022-11-20T01:15:51;-4.20;99.90
15231;DHT22;32569;51.762;8.564;2022-11-20T01:18:18;-4.20;99.90
15231;DHT22;32569;51.762;8.564;2022-11-20T01:20:45;-4.20;99.90
15231;DHT22;32569;51.762;8.564;2022-11-20T01:23:13;-4.20;99.90
15231;DHT22;32569;51.762;8.564;2022-11-20T01:25:40;-4.20;99.90
15231;DHT22;32569;51.762;8.564;2022-11-20T01:28:07;-4.10;99.90
15231;DHT22;32569;51.762;8.564;2022-11-20T01:30:33;-4.00;99.90
15231;DHT22;32569;51.762;8.564;2022-11-20T01:33:01;-4.10;99.90
15231;DHT22;32569;51.762;8.564;2022-11-20T01:35:28;-4.00;99.90
15231;DHT22;32569;51.762;8.564;2022-11-20T01:37:55;-4.10;99.90
15231;DHT22;32569;51.762;8.564;2022-11-20T01:40:23;-4.10;99.90
15231;DHT22;32569;51.762;8.564;2022-11-20T01:42:58;-4.10;99.90
15231;DHT22;32569;51.762;8.564;2022-11-20T01:46:06;-4.10;99.90
15231;DHT22;32569;51.762;8.564;2022-11-20T01:48:40;-4.10;99.90
15231;DHT22;32569;51.762;8.564;2022-11-20T01:51:15;-4.10;99.90
15231;DHT22;32569;51.762;8.564;2022-11-20T01:53:43;-4.00;99.90
15231;DHT22;32569;51.762;8.564;2022-11-20T01:56:13;-3.90;99.90
15231;DHT22;32569;51.762;8.564;2022-11-20T01:58:43;-4.00;99.90
15231;DHT22;32569;51.762;8.564;2022-11-20T02:01:12;-4.00;99.90
15231;DHT22;32569;51.762;8.564;2022-11-20T02:03:39;-4.10;99.90
15231;DHT22;32569;51.762;8.564;2022-11-20T02:06:11;-4.00;99.90
15231;DHT22;32569;51.762;8.564;2022-11-20T02:08:39;-4.10;99.90
15231;DHT22;32569;51.762;8.564;2022-11-20T02:11:06;-4.20;99.90
15231;DHT22;32569;51.762;8.564;2022-11-20T02:13:35;-4.10;99.90
15231;DHT22;32569;51.762;8.564;2022-11-20T02:16:16;-4.10;99.90
15231;DHT22;32569;51.762;8.564;2022-11-20T02:18:44;-4.20;99.90
15231;DHT22;32569;51.762;8.564;2022-11-20T02:21:26;-4.30;99.90
15231;DHT22;32569;51.762;8.564;2022-11-20T02:24:02;-4.40;99.90
15231;DHT22;32569;51.762;8.564;2022-11-20T02:26:32;-4.60;99.90
15231;DHT22;32569;51.762;8.564;2022-11-20T02:29:02;-4.80;99.90
15231;DHT22;32569;51.762;8.564;2022-11-20T02:31:29;-4.70;99.90
15231;DHT22;32569;51.762;8.564;2022-11-20T02:33:56;-4.70;99.90
15231;DHT22;32569;51.762;8.564;2022-11-20T02:36:25;-4.70;99.90
15231;DHT22;32569;51.762;8.564;2022-11-20T02:38:52;-4.70;99.90
15231;DHT22;32569;51.762;8.564;2022-11-20T02:41:21;-4.90;99.90
15231;DHT22;32569;51.762;8.564;2022-11-20T02:43:48;-5.10;99.90
15231;DHT22;32569;51.762;8.564;2022-11-20T02:46:14;-5.10;99.90
15231;DHT22;32569;51.762;8.564;2022-11-20T02:48:41;-5.10;99.90
15231;DHT22;32569;51.762;8.564;2022-11-20T02:51:08;-5.00;99.90
15231;DHT22;32569;51.762;8.564;2022-11-20T02:53:34;-5.00;99.90
15231;DHT22;32569;51.762;8.564;2022-11-20T02:56:01;-4.90;99.90
15231;DHT22;32569;51.762;8.564;2022-11-20T02:58:29;-4.80;99.90
15231;DHT22;32569;51.762;8.564;2022-11-20T03:00:56;-4.70;99.90
15231;DHT22;32569;51.762;8.564;2022-11-20T03:03:23;-4.70;99.90
15231;DHT22;32569;51.762;8.564;2022-11-20T03:05:50;-4.60;99.90
15231;DHT22;32569;51.762;8.564;2022-11-20T03:08:16;-4.70;99.90
15231;DHT22;32569;51.762;8.564;2022-11-20T03:10:43;-4.70;99.90
15231;DHT22;32569;51.762;8.564;2022-11-20T03:13:10;-4.70;99.90
15231;DHT22;32569;51.762;8.564;2022-11-20T03:15:38;-4.80;99.90
15231;DHT22;32569;51.762;8.564;2022-11-20T03:18:06;-4.70;99.90
15231;DHT22;32569;51.762;8.564;2022-11-20T03:20:33;-4.70;99.90
15231;DHT22;32569;51.762;8.564;2022-11-20T03:23:00;-4.70;99.90
15231;DHT22;32569;51.762;8.564;2022-11-20T03:25:27;-4.70;99.90
15231;DHT22;32569;51.762;8.564;2022-11-20T03:27:55;-4.70;99.90
15231;DHT22;32569;51.762;8.564;2022-11-20T03:30:22;-4.60;99.90
15231;DHT22;32569;51.762;8.564;2022-11-20T03:32:53;-4.50;99.90
15231;DHT22;32569;51.762;8.564;2022-11-20T03:35:20;-4.50;99.90
15231;DHT22;32569;51.762;8.564;2022-11-20T03:37:46;-4.60;99.90
15231;DHT22;32569;51.762;8.564;2022-11-20T03:40:14;-4.60;99.90
15231;DHT22;32569;51.762;8.564;2022-11-20T03:42:40;-4.60;99.90
15231;DHT22;32569;51.762;8.564;2022-11-20T03:45:14;-4.60;99.90
15231;DHT22;32569;51.762;8.564;2022-11-20T03:47:40;-4.70;99.90
15231;DHT22;32569;51.762;8.564;2022-11-20T03:50:10;-4.70;99.90
15231;DHT22;32569;51.762;8.564;2022-11-20T03:52:38;-4.60;99.90
15231;DHT22;32569;51.762;8.564;2022-11-20T03:55:05;-4.60;99.90
15231;DHT22;32569;51.762;8.564;2022-11-20T03:57:32;-4.70;99.90
15231;DHT22;32569;51.762;8.564;2022-11-20T03:59:59;-4.70;99.90
15231;DHT22;32569;51.762;8.564;2022-11-20T04:02:25;-4.70;99.90
15231;DHT22;32569;51.762;8.564;2022-11-20T04:04:52;-4.70;99.90
15231;DHT22;32569;51.762;8.564;2022-11-20T04:07:20;-4.80;99.90
15231;DHT22;32569;51.762;8.564;2022-11-20T04:09:47;-4.80;99.90
15231;DHT22;32569;51.762;8.564;2022-11-20T04:12:14;-4.80;99.90
15231;DHT22;32569;51.762;8.564;2022-11-20T04:14:40;-4.80;99.90
15231;DHT22;32569;51.762;8.564;2022-11-20T04:17:07;-4.80;99.90
15231;DHT22;32569;51.762;8.564;2022-11-20T04:19:34;-4.80;99.90
15231;DHT22;32569;51.762;8.564;2022-11-20T04:22:01;-4.80;99.90
15231;DHT22;32569;51.762;8.564;2022-11-20T04:24:29;-5.00;99.90
15231;DHT22;32569;51.762;8.564;2022-11-20T04:26:55;-5.50;99.90
15231;DHT22;32569;51.762;8.564;2022-11-20T04:29:22;-5.70;99.90
15231;DHT22;32569;51.762;8.564;2022-11-20T04:31:49;-5.60;99.90
15231;DHT22;32569;51.762;8.564;2022-11-20T04:34:16;-5.50;99.90
15231;DHT22;32569;51.762;8.564;2022-11-20T04:36:43;-5.40;99.90
15231;DHT22;32569;51.762;8.564;2022-11-20T04:39:13;-5.30;99.90
15231;DHT22;32569;51.762;8.564;2022-11-20T04:41:42;-5.30;99.90
15231;DHT22;32569;51.762;8.564;2022-11-20T04:44:08;-5.30;99.90
15231;DHT22;32569;51.762;8.564;2022-11-20T04:46:37;-5.50;99.90
15231;DHT22;32569;51.762;8.564;2022-11-20T04:49:05;-5.60;99.90
15231;DHT22;32569;51.762;8.564;2022-11-20T04:51:32;-5.60;99.90
15231;DHT22;32569;51.762;8.564;2022-11-20T04:53:58;-5.60;99.90
15231;DHT22;32569;51.762;8.564;2022-11-20T04:56:25;-5.70;99.90
15231;DHT22;32569;51.762;8.564;2022-11-20T04:58:53;-5.70;99.90
15231;DHT22;32569;51.762;8.564;2022-11-20T05:01:22;-5.70;99.90
15231;DHT22;32569;51.762;8.564;2022-11-20T05:03:49;-5.60;99.90
15231;DHT22;32569;51.762;8.564;2022-11-20T05:06:18;-5.50;99.90
15231;DHT22;32569;51.762;8.564;2022-11-20T05:08:45;-5.30;99.90
15231;DHT22;32569;51.762;8.564;2022-11-20T05:11:14;-5.10;99.90
15231;DHT22;32569;51.762;8.564;2022-11-20T05:13:42;-5.20;99.90
15231;DHT22;32569;51.762;8.564;2022-11-20T05:16:12;-5.20;99.90
15231;DHT22;32569;51.762;8.564;2022-11-20T05:18:39;-5.30;99.90
15231;DHT22;32569;51.762;8.564;2022-11-20T05:21:08;-5.20;99.90
15231;DHT22;32569;51.762;8.564;2022-11-20T05:23:35;-5.20;99.90
15231;DHT22;32569;51.762;8.564;2022-11-20T05:26:03;-5.30;99.90
15231;DHT22;32569;51.762;8.564;2022-11-20T05:28:30;-5.10;99.90
15231;DHT22;32569;51.762;8.564;2022-11-20T05:31:05;-5.00;99.90
15231;DHT22;32569;51.762;8.564;2022-11-20T05:33:34;-4.90;99.90
15231;DHT22;32569;51.762;8.564;2022-11-20T05:36:01;-4.90;99.90
15231;DHT22;32569;51.762;8.564;2022-11-20T05:38:28;-5.10;99.90
15231;DHT22;32569;51.762;8.564;2022-11-20T05:40:55;-5.00;99.90
15231;DHT22;32569;51.762;8.564;2022-11-20T05:43:21;-5.00;99.90
15231;DHT22;32569;51.762;8.564;2022-11-20T05:45:52;-5.10;99.90
15231;DHT22;32569;51.762;8.564;2022-11-20T05:48:19;-5.20;99.90
15231;DHT22;32569;51.762;8.564;2022-11-20T05:50:47;-5.30;99.90
15231;DHT22;32569;51.762;8.564;2022-11-20T05:53:14;-5.30;99.90
15231;DHT22;32569;51.762;8.564;2022-11-20T05:55:41;-5.30;99.90
15231;DHT22;32569;51.762;8.564;2022-11-20T05:58:08;-5.30;99.90
15231;DHT22;32569;51.762;8.564;2022-11-20T06:00:35;-5.20;99.90
15231;DHT22;32569;51.762;8.564;2022-11-20T06:03:02;-5.20;99.90
15231;DHT22;32569;51.762;8.564;2022-11-20T06:05:29;-5.10;99.90
15231;DHT22;32569;51.762;8.564;2022-11-20T06:07:57;-5.10;99.90
15231;DHT22;32569;51.762;8.564;2022-11-20T06:10:23;-5.00;99.90
15231;DHT22;32569;51.762;8.564;2022-11-20T06:12:50;-5.10;99.90
15231;DHT22;32569;51.762;8.564;2022-11-20T06:15:17;-5.00;99.90
15231;DHT22;32569;51.762;8.564;2022-11-20T06:17:44;-4.90;99.90
15231;DHT22;32569;51.762;8.564;2022-11-20T06:20:11;-5.00;99.90
15231;DHT22;32569;51.762;8.564;2022-11-20T06:22:37;-4.90;99.90
15231;DHT22;32569;51.762;8.564;2022-11-20T06:25:06;-4.90;99.90
15231;DHT22;32569;51.762;8.564;2022-11-20T06:27:33;-4.80;99.90
15231;DHT22;32569;51.762;8.564;2022-11-20T06:30:00;-4.80;99.90
15231;DHT22;32569;51.762;8.564;2022-11-20T06:32:26;-4.80;99.90
15231;DHT22;32569;51.762;8.564;2022-11-20T06:34:53;-4.80;99.90
15231;DHT22;32569;51.762;8.564;2022-11-20T06:37:20;-4.80;99.90
15231;DHT22;32569;51.762;8.564;2022-11-20T06:39:47;-4.90;99.90
15231;DHT22;32569;51.762;8.564;2022-11-20T06:42:15;-4.90;99.90
15231;DHT22;32569;51.762;8.564;2022-11-20T06:44:42;-4.90;99.90
15231;DHT22;32569;51.762;8.564;2022-11-20T06:47:08;-4.80;99.90
15231;DHT22;32569;51.762;8.564;2022-11-20T06:49:36;-4.70;99.90
15231;DHT22;32569;51.762;8.564;2022-11-20T06:52:06;-4.70;99.90
15231;DHT22;32569;51.762;8.564;2022-11-20T06:54:33;-4.70;99.90
15231;DHT22;32569;51.762;8.564;2022-11-20T06:57:00;-4.60;99.90
15231;DHT22;32569;51.762;8.564;2022-11-20T06:59:28;-4.50;99.90
15231;DHT22;32569;51.762;8.564;2022-11-20T07:01:55;-4.50;99.90
15231;DHT22;32569;51.762;8.564;2022-11-20T07:04:22;-4.50;99.90
15231;DHT22;32569;51.762;8.564;2022-11-20T07:06:50;-4.60;99.90
15231;DHT22;32569;51.762;8.564;2022-11-20T07:09:16;-4.50;99.90
15231;DHT22;32569;51.762;8.564;2022-11-20T07:11:43;-4.50;99.90
15231;DHT22;32569;51.762;8.564;2022-11-20T07:14:10;-4.40;99.90
15231;DHT22;32569;51.762;8.564;2022-11-20T07:16:38;-4.40;99.90
15231;DHT22;32569;51.762;8.564;2022-11-20T07:19:05;-4.20;99.90
15231;DHT22;32569;51.762;8.564;2022-11-20T07:21:32;-4.10;99.90
15231;DHT22;32569;51.762;8.564;2022-11-20T07:23:58;-4.20;99.90
15231;DHT22;32569;51.762;8.564;2022-11-20T07:26:25;-4.10;99.90
15231;DHT22;32569;51.762;8.564;2022-11-20T07:28:52;-4.20;99.90
15231;DHT22;32569;51.762;8.564;2022-11-20T07:31:19;-4.10;99.90
15231;DHT22;32569;51.762;8.564;2022-11-20T07:33:48;-4.00;99.90
15231;DHT22;32569;51.762;8.564;2022-11-20T07:36:15;-4.10;99.90
15231;DHT22;32569;51.762;8.564;2022-11-20T07:38:42;-4.10;99.90
15231;DHT22;32569;51.762;8.564;2022-11-20T07:41:08;-4.10;99.90
15231;DHT22;32569;51.762;8.564;2022-11-20T07:43:35;-4.10;99.90
15231;DHT22;32569;51.762;8.564;2022-11-20T07:46:02;-4.00;99.90
15231;DHT22;32569;51.762;8.564;2022-11-20T07:48:29;-4.00;99.90
15231;DHT22;32569;51.762;8.564;2022-11-20T07:50:57;-3.80;99.90
15231;DHT22;32569;51.762;8.564;2022-11-20T07:53:24;-3.70;99.90
15231;DHT22;32569;51.762;8.564;2022-11-20T07:55:51;-3.70;99.90
15231;DHT22;32569;51.762;8.564;2022-11-20T07:58:19;-3.70;99.90
15231;DHT22;32569;51.762;8.564;2022-11-20T08:00:45;-3.70;99.90
15231;DHT22;32569;51.762;8.564;2022-11-20T08:03:12;-3.60;99.90
15231;DHT22;32569;51.762;8.564;2022-11-20T08:05:39;-3.50;99.90
15231;DHT22;32569;51.762;8.564;2022-11-20T08:08:08;-3.50;99.90
15231;DHT22;32569;51.762;8.564;2022-11-20T08:10:37;-3.50;99.90
15231;DHT22;32569;51.762;8.564;2022-11-20T08:13:05;-3.40;99.90
15231;DHT22;32569;51.762;8.564;2022-11-20T08:15:50;-3.30;99.90
15231;DHT22;32569;51.762;8.564;2022-11-20T08:18:17;-3.20;99.90
15231;DHT22;32569;51.762;8.564;2022-11-20T08:20:44;-3.20;99.90
15231;DHT22;32569;51.762;8.564;2022-11-20T08:23:12;-3.10;99.90
15231;DHT22;32569;51.762;8.564;2022-11-20T08:25:39;-3.10;99.90
15231;DHT22;32569;51.762;8.564;2022-11-20T08:28:08;-3.10;99.90
15231;DHT22;32569;51.762;8.564;2022-11-20T08:30:36;-3.10;99.90
15231;DHT22;32569;51.762;8.564;2022-11-20T08:33:04;-3.10;99.90
15231;DHT22;32569;51.762;8.564;2022-11-20T08:35:33;-3.20;99.90
15231;DHT22;32569;51.762;8.564;2022-11-20T08:38:01;-3.10;99.90
15231;DHT22;32569;51.762;8.564;2022-11-20T08:40:29;-3.10;99.90
15231;DHT22;32569;51.762;8.564;2022-11-20T08:42:56;-3.10;99.90
15231;DHT22;32569;51.762;8.564;2022-11-20T08:45:23;-3.00;99.90
15231;DHT22;32569;51.762;8.564;2022-11-20T08:47:50;-2.90;99.90
15231;DHT22;32569;51.762;8.564;2022-11-20T08:50:18;-2.90;99.90
15231;DHT22;32569;51.762;8.564;2022-11-20T08:52:45;-2.80;99.90
15231;DHT22;32569;51.762;8.564;2022-11-20T08:55:12;-2.70;99.90
15231;DHT22;32569;51.762;8.564;2022-11-20T08:57:40;-2.60;99.90
15231;DHT22;32569;51.762;8.564;2022-11-20T09:00:09;-2.60;99.90
15231;DHT22;32569;51.762;8.564;2022-11-20T09:02:36;-2.50;99.90
15231;DHT22;32569;51.762;8.564;2022-11-20T09:05:03;-2.50;99.90
15231;DHT22;32569;51.762;8.564;2022-11-20T09:07:32;-2.40;99.90
15231;DHT22;32569;51.762;8.564;2022-11-20T09:09:58;-2.30;99.90
15231;DHT22;32569;51.762;8.564;2022-11-20T09:12:26;-2.10;99.90
15231;DHT22;32569;51.762;8.564;2022-11-20T09:14:54;-2.10;99.90
15231;DHT22;32569;51.762;8.564;2022-11-20T09:17:21;-2.00;99.90
15231;DHT22;32569;51.762;8.564;2022-11-20T09:19:47;-2.00;99.90
15231;DHT22;32569;51.762;8.564;2022-11-20T09:22:14;-1.90;99.90
15231;DHT22;32569;51.762;8.564;2022-11-20T09:24:41;-1.90;99.90
15231;DHT22;32569;51.762;8.564;2022-11-20T09:27:08;-1.90;99.90
15231;DHT22;32569;51.762;8.564;2022-11-20T09:29:35;-1.80;99.90
15231;DHT22;32569;51.762;8.564;2022-11-20T09:32:04;-1.80;99.90
15231;DHT22;32569;51.762;8.564;2022-11-20T09:34:31;-1.70;99.90
15231;DHT22;32569;51.762;8.564;2022-11-20T09:36:59;-1.60;99.90
15231;DHT22;32569;51.762;8.564;2022-11-20T09:39:25;-1.60;99.90
15231;DHT22;32569;51.762;8.564;2022-11-20T09:42:03;-1.60;99.90
15231;DHT22;32569;51.762;8.564;2022-11-20T09:44:46;-1.50;99.90
15231;DHT22;32569;51.762;8.564;2022-11-20T09:47:26;-1.60;99.90
15231;DHT22;32569;51.762;8.564;2022-11-20T09:50:07;-1.60;99.90
15231;DHT22;32569;51.762;8.564;2022-11-20T09:52:46;-1.40;99.90
15231;DHT22;32569;51.762;8.564;2022-11-20T09:55:16;-1.30;99.90
15231;DHT22;32569;51.762;8.564;2022-11-20T09:57:46;-1.20;99.90
15231;DHT22;32569;51.762;8.564;2022-11-20T10:00:15;-1.10;99.90
15231;DHT22;32569;51.762;8.564;2022-11-20T10:02:48;-1.10;99.90
15231;DHT22;32569;51.762;8.564;2022-11-20T10:05:20;-1.10;99.90
15231;DHT22;32569;51.762;8.564;2022-11-20T10:07:52;-1.10;99.90
15231;DHT22;32569;51.762;8.564;2022-11-20T10:10:29;-1.20;99.90
15231;DHT22;32569;51.762;8.564;2022-11-20T10:13:09;-1.10;99.90
15231;DHT22;32569;51.762;8.564;2022-11-20T10:15:43;-1.00;99.90
15231;DHT22;32569;51.762;8.564;2022-11-20T10:18:27;-1.00;99.90
15231;DHT22;32569;51.762;8.564;2022-11-20T10:21:03;-1.00;99.90
15231;DHT22;32569;51.762;8.564;2022-11-20T10:23:52;-0.90;99.90
15231;DHT22;32569;51.762;8.564;2022-11-20T10:26:29;-0.80;99.90
15231;DHT22;32569;51.762;8.564;2022-11-20T10:29:07;-0.80;99.90
15231;DHT22;32569;51.762;8.564;2022-11-20T10:31:37;-0.80;99.90
15231;DHT22;32569;51.762;8.564;2022-11-20T10:34:16;-0.70;99.90
15231;DHT22;32569;51.762;8.564;2022-11-20T10:36:51;-0.60;99.90
15231;DHT22;32569;51.762;8.564;2022-11-20T10:39:25;-0.60;99.90
15231;DHT22;32569;51.762;8.564;2022-11-20T10:41:53;-0.50;99.90
15231;DHT22;32569;51.762;8.564;2022-11-20T10:44:25;-0.50;99.90
15231;DHT22;32569;51.762;8.564;2022-11-20T10:47:13;-0.40;99.90
15231;DHT22;32569;51.762;8.564;2022-11-20T10:49:42;-0.40;99.90
15231;DHT22;32569;51.762;8.564;2022-11-20T10:52:15;-0.40;99.90
15231;DHT22;32569;51.762;8.564;2022-11-20T10:54:51;-0.40;99.90
15231;DHT22;32569;51.762;8.564;2022-11-20T10:57:27;-0.40;99.90
15231;DHT22;32569;51.762;8.564;2022-11-20T11:00:02;-0.30;99.90
15231;DHT22;32569;51.762;8.564;2022-11-20T11:02:35;-0.40;99.90
15231;DHT22;32569;51.762;8.564;2022-11-20T11:05:16;-0.20;99.90
15231;DHT22;32569;51.762;8.564;2022-11-20T11:07:45;-0.10;99.90
15231;DHT22;32569;51.762;8.564;2022-11-20T11:10:19;-0.10;99.90
15231;DHT22;32569;51.762;8.564;2022-11-20T11:12:47;-0.20;99.90
15231;DHT22;32569;51.762;8.564;2022-11-20T11:15:24;-0.30;99.90
15231;DHT22;32569;51.762;8.564;2022-11-20T11:17:52;-0.30;99.90
15231;DHT22;32569;51.762;8.564;2022-11-20T11:20:21;-0.30;99.90
15231;DHT22;32569;51.762;8.564;2022-11-20T11:22:50;-0.30;99.90
15231;DHT22;32569;51.762;8.564;2022-11-20T11:25:24;-0.20;99.90
15231;DHT22;32569;51.762;8.564;2022-11-20T11:27:52;-0.10;99.90
15231;DHT22;32569;51.762;8.564;2022-11-20T11:30:21;-0.10;99.90
15231;DHT22;32569;51.762;8.564;2022-11-20T11:32:48;-0.10;99.90
15231;DHT22;32569;51.762;8.564;2022-11-20T11:35:38;-0.10;99.90
15231;DHT22;32569;51.762;8.564;2022-11-20T11:38:10;-0.10;99.90
15231;DHT22;32569;51.762;8.564;2022-11-20T11:40:40;-0.10;99.90
15231;DHT22;32569;51.762;8.564;2022-11-20T11:43:17;0.00;99.90
15231;DHT22;32569;51.762;8.564;2022-11-20T11:45:59;0.10;99.90
15231;DHT22;32569;51.762;8.564;2022-11-20T11:48:25;0.00;99.90
15231;DHT22;32569;51.762;8.564;2022-11-20T11:50:54;0.00;99.90
15231;DHT22;32569;51.762;8.564;2022-11-20T11:53:22;0.00;99.90
15231;DHT22;32569;51.762;8.564;2022-11-20T11:55:54;0.00;99.90
15231;DHT22;32569;51.762;8.564;2022-11-20T11:58:34;0.00;99.90
15231;DHT22;32569;51.762;8.564;2022-11-20T12:01:04;-0.10;99.90
15231;DHT22;32569;51.762;8.564;2022-11-20T12:03:35;-0.10;99.90
15231;DHT22;32569;51.762;8.564;2022-11-20T12:06:10;-0.10;99.90
15231;DHT22;32569;51.762;8.564;2022-11-20T12:08:43;0.00;99.90
15231;DHT22;32569;51.762;8.564;2022-11-20T12:11:14;0.10;99.90
15231;DHT22;32569;51.762;8.564;2022-11-20T12:13:48;0.10;99.90
15231;DHT22;32569;51.762;8.564;2022-11-20T12:16:19;0.00;99.90
15231;DHT22;32569;51.762;8.564;2022-11-20T12:18:48;0.00;99.90
15231;DHT22;32569;51.762;8.564;2022-11-20T12:21:33;0.10;99.90
15231;DHT22;32569;51.762;8.564;2022-11-20T12:27:52;0.30;99.90
15231;DHT22;32569;51.762;8.564;2022-11-20T12:30:21;0.30;99.90
15231;DHT22;32569;51.762;8.564;2022-11-20T12:33:11;0.40;99.90
15231;DHT22;32569;51.762;8.564;2022-11-20T12:35:53;0.50;99.90
15231;DHT22;32569;51.762;8.564;2022-11-20T12:41:26;0.70;99.90
15231;DHT22;32569;51.762;8.564;2022-11-20T12:44:24;0.70;99.90
15231;DHT22;32569;51.762;8.564;2022-11-20T12:47:19;0.80;99.90
15231;DHT22;32569;51.762;8.564;2022-11-20T12:49:56;0.70;99.90
15231;DHT22;32569;51.762;8.564;2022-11-20T12:52:41;0.70;99.90
15231;DHT22;32569;51.762;8.564;2022-11-20T12:55:33;0.70;99.90
15231;DHT22;32569;51.762;8.564;2022-11-20T12:58:10;0.70;99.90
15231;DHT22;32569;51.762;8.564;2022-11-20T13:00:46;0.80;99.90
15231;DHT22;32569;51.762;8.564;2022-11-20T13:03:31;0.70;99.90
15231;DHT22;32569;51.762;8.564;2022-11-20T13:06:05;0.70;99.90
15231;DHT22;32569;51.762;8.564;2022-11-20T13:08:39;0.60;99.90
15231;DHT22;32569;51.762;8.564;2022-11-20T13:11:16;0.60;99.90
15231;DHT22;32569;51.762;8.564;2022-11-20T13:14:09;0.60;99.90
15231;DHT22;32569;51.762;8.564;2022-11-20T13:16:41;0.60;99.90
15231;DHT22;32569;51.762;8.564;2022-11-20T13:19:11;0.70;99.90
15231;DHT22;32569;51.762;8.564;2022-11-20T13:21:43;0.80;99.90
15231;DHT22;32569;51.762;8.564;2022-11-20T13:24:22;0.90;99.90
15231;DHT22;32569;51.762;8.564;2022-11-20T13:27:02;1.10;99.90
15231;DHT22;32569;51.762;8.564;2022-11-20T13:29:29;1.30;99.90
15231;DHT22;32569;51.762;8.564;2022-11-20T13:32:05;1.30;99.90
15231;DHT22;32569;51.762;8.564;2022-11-20T13:34:34;1.30;99.90
15231;DHT22;32569;51.762;8.564;2022-11-20T13:37:01;1.30;99.90
15231;DHT22;32569;51.762;8.564;2022-11-20T13:39:31;1.30;99.90
15231;DHT22;32569;51.762;8.564;2022-11-20T13:42:01;1.20;99.90
15231;DHT22;32569;51.762;8.564;2022-11-20T13:44:33;1.20;99.90
15231;DHT22;32569;51.762;8.564;2022-11-20T13:47:03;1.20;99.90
15231;DHT22;32569;51.762;8.564;2022-11-20T13:49:32;1.10;99.90
15231;DHT22;32569;51.762;8.564;2022-11-20T13:52:17;1.00;99.90
15231;DHT22;32569;51.762;8.564;2022-11-20T13:55:02;1.00;99.90
15231;DHT22;32569;51.762;8.564;2022-11-20T13:57:53;0.90;99.90
15231;DHT22;32569;51.762;8.564;2022-11-20T14:00:25;0.90;99.90
15231;DHT22;32569;51.762;8.564;2022-11-20T14:03:01;0.90;99.90
15231;DHT22;32569;51.762;8.564;2022-11-20T14:05:28;0.90;99.90
15231;DHT22;32569;51.762;8.564;2022-11-20T14:07:58;1.00;99.90
15231;DHT22;32569;51.762;8.564;2022-11-20T14:10:27;1.20;99.90
15231;DHT22;32569;51.762;8.564;2022-11-20T14:12:55;1.20;99.90
15231;DHT22;32569;51.762;8.564;2022-11-20T14:15:27;1.20;99.90
15231;DHT22;32569;51.762;8.564;2022-11-20T14:17:54;1.30;99.90
15231;DHT22;32569;51.762;8.564;2022-11-20T14:20:23;1.30;99.90
15231;DHT22;32569;51.762;8.564;2022-11-20T14:22:51;1.30;99.90
15231;DHT22;32569;51.762;8.564;2022-11-20T14:25:20;1.30;99.90
15231;DHT22;32569;51.762;8.564;2022-11-20T14:27:51;1.30;99.90
15231;DHT22;32569;51.762;8.564;2022-11-20T14:30:22;1.30;99.90
15231;DHT22;32569;51.762;8.564;2022-11-20T14:32:51;1.20;99.90
15231;DHT22;32569;51.762;8.564;2022-11-20T14:35:23;1.20;99.90
15231;DHT22;32569;51.762;8.564;2022-11-20T14:37:50;1.20;99.90
15231;DHT22;32569;51.762;8.564;2022-11-20T14:40:27;1.20;99.90
15231;DHT22;32569;51.762;8.564;2022-11-20T14:42:55;1.10;99.90
15231;DHT22;32569;51.762;8.564;2022-11-20T14:45:24;1.00;99.90
15231;DHT22;32569;51.762;8.564;2022-11-20T14:47:54;1.00;99.90
15231;DHT22;32569;51.762;8.564;2022-11-20T14:50:23;1.00;99.90
15231;DHT22;32569;51.762;8.564;2022-11-20T14:52:51;1.00;99.90
15231;DHT22;32569;51.762;8.564;2022-11-20T14:55:29;1.00;99.90
15231;DHT22;32569;51.762;8.564;2022-11-20T14:57:58;1.00;99.90
15231;DHT22;32569;51.762;8.564;2022-11-20T15:00:28;1.10;99.90
15231;DHT22;32569;51.762;8.564;2022-11-20T15:02:55;1.10;99.90
15231;DHT22;32569;51.762;8.564;2022-11-20T15:05:25;1.10;99.90
15231;DHT22;32569;51.762;8.564;2022-11-20T15:08:05;1.20;99.90
15231;DHT22;32569;51.762;8.564;2022-11-20T15:10:32;1.20;99.90
15231;DHT22;32569;51.762;8.564;2022-11-20T15:13:01;1.20;99.90
15231;DHT22;32569;51.762;8.564;2022-11-20T15:15:32;1.20;99.90
15231;DHT22;32569;51.762;8.564;2022-11-20T15:17:59;1.20;99.90
15231;DHT22;32569;51.762;8.564;2022-11-20T15:20:28;1.20;99.90
15231;DHT22;32569;51.762;8.564;2022-11-20T15:22:56;1.30;99.90
15231;DHT22;32569;51.762;8.564;2022-11-20T15:25:24;1.30;99.90
15231;DHT22;32569;51.762;8.564;2022-11-20T15:27:54;1.30;99.90
15231;DHT22;32569;51.762;8.564;2022-11-20T15:30:22;1.20;99.90
15231;DHT22;32569;51.762;8.564;2022-11-20T15:32:50;1.20;99.90
15231;DHT22;32569;51.762;8.564;2022-11-20T15:35:17;1.30;99.90
15231;DHT22;32569;51.762;8.564;2022-11-20T15:37:44;1.30;99.90
15231;DHT22;32569;51.762;8.564;2022-11-20T15:40:11;1.30;99.90
15231;DHT22;32569;51.762;8.564;2022-11-20T15:42:38;1.30;99.90
15231;DHT22;32569;51.762;8.564;2022-11-20T15:45:25;1.20;99.90
15231;DHT22;32569;51.762;8.564;2022-11-20T15:47:56;1.30;99.90
15231;DHT22;32569;51.762;8.564;2022-11-20T15:50:34;1.30;99.90
15231;DHT22;32569;51.762;8.564;2022-11-20T15:53:02;1.30;99.90
15231;DHT22;32569;51.762;8.564;2022-11-20T15:55:30;1.30;99.90
15231;DHT22;32569;51.762;8.564;2022-11-20T15:57:57;1.30;99.90
15231;DHT22;32569;51.762;8.564;2022-11-20T16:00:24;1.30;99.90